Archival Weather

Tokyo Intl

Tokyo Intl, Japan (RJTT)

Report from: Friday, June 24, 2022 4:30 PM JST
Current time: Tuesday, August 16, 2022 11:09 AM JST

Current weather
Weather history
Weather forecast

Temperature29.0°C (84.2°F)
Heat index32.2°C (90.0°F)
Dew point22.0°C (71.6°F)
Winds 27 kts (13.9 m/s, 31.1 mph) Southwest (220°)
Wind gusts 37 kts (19 m/s, 42.6 mph)
Visibility6.2 mi. (10 km)
Clouds Ceiling: Broken clouds 0 ft. (0 m)
Few clouds 3,000 ft. (914 m)
Altimeter29.62 in.Hg (1003 mB)
Relative humidity66 %
Density altitude2,309 ft. (704 m)
Remarks No significant changes expected in the next two hours
Flight conditions Low Instrument Meteorological Conditions
Raw dataRJTT 240730Z 22027G37KT 9999 FEW030 BKN/// 29/22 Q1003 NOSIG
An error has occurred. This application may no longer respond until reloaded. Reload 🗙